Ramsey, IL

12:11 PM CDT en Abril 26, 2015 (GMT -0500)
Litchfield | | Change Station
CLOSE
Current Station
Aeropuerto
Location: Litchfield,
Altura: 689 ft
Estaciones meteorológicas cercanas

Alt 689 ft 39.16 °N, 89.67 °W | Updated 16 minutes ago

Despejado
Despejado
54 ° F
Sensación térmica 54 ° F
N
13
Viento Variable Viento desde ENE

Hoy
Alta -- | Baja -- ° F
--% Posibilidad de precipitaciones
Ayer
Alta -- | Baja -- ° F
Precip. -- pul
6:04 AM 7:44 PM
Cuarto creciente, 57% visible
Presión 29.97 pul
Visibilidad 10.0 Millas
Nubes Despejado
Punto de rocío 37 ° F
Humedad 52%
Precipitaciones 0.00 pul
Espesor de la nieve No disponible.
UV 10 de una escala de 12
Polen 10.20 de una escala de 12
Calidad del aire No disponible.
Flu Activity Regional
METAR K3LF 261655Z AUTO 06011KT 10SM CLR 12/03 A2997 RMK AO2 T01240028

More Conditions Fewer Conditions

Presión 29.97 pul
Visibilidad 10.0 Millas
Nubes Despejado
Punto de rocío 37 ° F
Humedad 52%
Precipitaciones 0.00 pul
Espesor de la nieve No disponible.
UV 10 de una escala de 12
Polen 10.20 de una escala de 12
Calidad del aire No disponible.
Flu Activity Regional
METAR K3LF 261655Z AUTO 06011KT 10SM CLR 12/03 A2997 RMK AO2 T01240028

More Conditions Fewer Conditions

The full scope of the disaster following a powerful 7.8-magnitude earthquake in Nepal may not come into view for days, but global charities are already sending emergency aid. Click to see how you can help.

10-Day Weather Forecast

Almanac

Astronomía

Apr. 26, 2015 Salida Puesta
Hora real
Crepúsculo civil
Crepúsculo náutico
Crepúsculo astronómico
Luna
Horas de luz
Horas de luz
Tomorrow will be .
, % of the Moon is Illuminated

Extremos de hoy

Máximos del estado Bajos del estado

Community

WunderPhotos

Upload Photos

1,817,058 ¡fotos cargadas!

WunderBlogs® & News

Nearby

Calidad del aire

  Calidad del aire Índice AQ Contaminante
Not available.

Grosos de nieve

Estación Profundido Altura

Actividad de terremotos

Ciudad Distance Mag. Tiempo y dato
Magnitud mínima muestra es 2,5.

Temperaturas de aguas costeras

Lugar Temperatura

Stations

Estaciones meteorológicas cercanas

Ubicación de la estación Temp. Vientos helados Punto de rocío Humedad Viento Precip. Alt Actualizado Tipo